Latest Weather Observations for Argyle

IDW60801

Issued at 11:33 pm WST Saturday 27 May 2017 (issued every 30 minutes, with the page automatically refreshed every 10 minutes)

About weather observations | Map of weather stations | Latest weather observations for WA | Other Formats
Station Details ID: 002064 Name: ARGYLE AERODROME Lat: -16.64 Lon: 128.45 Height: 164.0 m
Data from the previous 72 hours. | See also: Recent months at Argyle
Date/Time
WST
Temp
°C
App
Temp
°C
Dew
Point
°C
Rel
Hum
%
Delta-T
°C
Wind Press
QNH
hPa
Press
MSL
hPa
Rain since
9am
mm
Dir  Spd
km/h
Gust
km/h
Spd
kts
Gust
kts
27/11:00pm 21.6 19.8 7.9 41 7.2 ESE 7 9 4 5 1015.6 - 0.0
27/10:00pm 22.8 20.5 7.6 37 8.0 E 9 9 5 5 1016.0 - 0.0
27/09:30pm 22.9 20.8 8.2 39 7.8 E 9 11 5 6 1015.9 - 0.0
27/09:00pm 23.7 22.3 8.7 38 8.1 S 6 7 3 4 1015.9 - 0.0
27/08:30pm 22.7 21.2 8.4 40 7.6 SW 6 6 3 3 1015.8 - 0.0
27/08:00pm 24.6 22.5 8.2 35 8.8 ESE 9 11 5 6 1015.5 - 0.0
27/07:30pm 24.7 22.5 7.8 34 9.0 ESE 9 11 5 6 1015.2 - 0.0
27/06:00pm 25.9 23.8 8.4 33 9.5 E 9 11 5 6 1014.1 - 0.0
27/05:30pm 26.6 24.4 9.2 33 9.6 E 11 13 6 7 1013.7 - 0.0
27/05:00pm 28.2 26.5 9.7 31 10.4 E 9 11 5 6 1013.3 - 0.0
27/04:00pm 31.5 28.9 6.0 20 13.7 ENE 9 17 5 9 1012.7 - 0.0
27/03:30pm 31.9 28.8 5.5 19 14.1 NE 11 17 6 9 1012.7 - 0.0
27/03:00pm 32.0 28.2 5.7 19 14.1 ENE 15 20 8 11 1012.8 - -
27/02:30pm 32.2 28.2 4.8 18 14.5 ENE 15 26 8 14 1012.9 - 0.0
27/02:00pm 32.2 28.8 6.1 19 14.1 E 13 26 7 14 1013.1 - 0.0
27/01:30pm 32.4 28.2 5.5 18 14.4 E 17 26 9 14 1013.6 - 0.0
27/12:30pm 31.8 28.0 5.9 19 13.9 E 15 26 8 14 1014.3 - 0.0
27/12:00pm 31.7 27.6 6.4 20 13.7 ENE 17 22 9 12 1014.6 1013.7 0.0
27/11:30am 31.0 26.5 6.3 21 13.3 E 19 30 10 16 1015.2 - -
27/10:30am 30.5 26.9 6.6 22 12.9 ENE 15 20 8 11 1016.1 - 0.0
27/09:30am 28.6 25.1 5.5 23 12.1 ENE 13 20 7 11 1016.8 - 0.0
27/08:30am 26.8 23.5 6.2 27 10.8 E 13 19 7 10 1017.0 - 0.0
27/08:00am 25.6 23.2 7.1 30 9.8 SE 9 13 5 7 1017.0 - 0.0
27/07:30am 24.5 23.0 8.3 35 8.7 E 6 7 3 4 1016.8 - 0.0
27/07:00am 23.6 23.3 8.8 39 8.0 CALM 0 0 0 0 1016.4 - 0.0
27/04:30am 19.7 19.1 8.9 49 5.7 WSW 2 6 1 3 1014.9 - 0.0
27/04:00am 21.1 20.0 8.4 44 6.7 W 4 6 2 3 1014.8 - 0.0
27/02:00am 21.4 19.8 8.6 44 6.8 WSW 7 9 4 5 1014.8 - 0.0
27/01:30am 21.6 19.7 8.9 44 6.8 SW 9 11 5 6 1014.9 - 0.0
27/01:23am 21.9 19.9 8.6 42 7.1 SW 9 9 5 5 1014.9 - 0.0
27/01:00am 21.1 20.4 10.1 49 6.0 S 4 9 2 5 1015.1 - 0.0
27/12:30am 21.1 21.4 11.0 52 5.6 CALM 0 0 0 0 1015.3 - 0.0
27/12:00am 21.5 21.9 11.1 51 5.8 CALM 0 0 0 0 1015.4 1014.5 0.0
 
Date/Time
WST
Temp
°C
App
Temp
°C
Dew
Point
°C
Rel
Hum
%
Delta-T
°C
Wind Press
QNH
hPa
Press
MSL
hPa
Rain since
9am
mm
Dir  Spd
km/h
Gust
km/h
Spd
kts
Gust
kts
26/11:30pm 22.1 21.0 10.7 48 6.3 SSW 7 9 4 5 1015.5 - 0.0
26/11:00pm 22.6 21.5 10.7 47 6.6 E 7 9 4 5 1015.5 - 0.0
26/10:30pm 23.3 22.4 11.4 47 6.7 SSE 7 9 4 5 1015.6 - 0.0
26/10:00pm 22.0 21.3 12.1 53 5.6 S 7 9 4 5 1015.6 - 0.0
26/09:30pm 23.8 23.1 12.1 48 6.7 SSE 7 7 4 4 1015.5 - 0.0
26/09:00pm 24.0 24.3 12.1 47 6.8 S 2 7 1 4 1015.4 1014.5 0.0
26/08:30pm 24.2 24.8 12.0 46 7.0 CALM 0 0 0 0 1015.3 - 0.0
26/08:00pm 24.6 23.8 11.8 44 7.3 SSW 7 9 4 5 1015.3 - 0.0
26/07:30pm 24.9 24.1 11.8 44 7.5 SW 7 9 4 5 1015.1 - 0.0
26/07:00pm 25.2 25.8 11.8 43 7.7 CALM 0 4 0 2 1014.9 - 0.0
26/06:30pm 25.9 26.0 14.0 47 7.1 ENE 6 6 3 3 1014.6 - 0.0
26/06:00pm 26.8 26.8 13.5 44 7.9 E 6 7 3 4 1014.4 1013.5 0.0
26/05:30pm 27.4 26.9 12.8 40 8.6 NE 7 9 4 5 1014.0 - 0.0
26/05:00pm 28.4 27.8 12.4 37 9.4 ENE 7 9 4 5 1013.7 - 0.0
26/04:30pm 30.5 29.6 11.5 31 11.1 E 7 9 4 5 1013.4 - 0.0
26/04:00pm 31.3 29.3 10.3 27 12.1 E 11 15 6 8 1013.1 - 0.0
26/03:30pm 31.5 28.9 9.3 25 12.6 ESE 13 20 7 11 1012.9 - 0.0
26/03:00pm 31.6 27.8 9.2 25 12.7 E 19 26 10 14 1012.8 1011.9 0.0
26/02:30pm 31.5 28.6 9.8 26 12.4 E 15 20 8 11 1012.8 - 0.0
26/02:00pm 31.7 29.4 11.7 29 11.8 ENE 15 22 8 12 1013.0 - 0.0
26/01:30pm 31.9 29.0 11.0 27 12.2 ENE 17 24 9 13 1013.3 - 0.0
26/01:00pm 32.0 28.8 9.8 25 12.7 ENE 17 30 9 16 1013.6 - 0.0
26/12:30pm 31.1 26.5 9.7 26 12.2 ESE 24 30 13 16 1014.0 - 0.0
26/12:00pm 31.7 28.1 9.9 26 12.5 ENE 19 30 10 16 1014.7 1013.8 0.0
26/11:30am 31.3 28.3 10.8 28 11.9 ENE 17 26 9 14 1015.3 - 0.0
26/11:00am 30.5 26.9 10.5 29 11.5 E 20 33 11 18 1015.7 - 0.0
26/10:30am 30.1 26.8 11.6 32 10.8 ENE 20 28 11 15 1015.9 - 0.0
26/10:00am 29.7 28.9 11.7 33 10.5 E 7 15 4 8 1016.5 - 0.0
26/09:30am 28.6 26.4 10.8 33 10.2 E 13 20 7 11 1016.8 - 0.0
26/09:00am 28.7 26.4 10.4 32 10.4 E 13 20 7 11 1016.9 1016.1 0.0
26/08:30am 27.3 23.8 8.7 31 10.2 E 17 24 9 13 1016.8 - 0.0
26/08:00am 26.5 24.0 8.0 31 10.0 E 11 15 6 8 1016.7 - 0.0
26/07:30am 25.5 23.8 8.5 34 9.2 NE 7 11 4 6 1016.5 - 0.0
26/07:00am 24.5 23.0 8.3 35 8.7 E 6 7 3 4 1016.3 - 0.0
26/06:30am 21.9 21.9 9.8 46 6.6 CALM 0 0 0 0 1016.1 - 0.0
26/06:00am 20.2 18.3 9.1 49 5.9 SW 9 9 5 5 1015.7 1014.8 0.0
26/05:30am 20.8 20.6 9.0 46 6.3 CALM 0 0 0 0 1015.4 - 0.0
26/05:00am 20.2 19.0 9.6 50 5.7 WSW 6 7 3 4 1015.2 - 0.0
26/04:30am 20.6 19.3 9.2 48 6.1 WSW 6 7 3 4 1014.8 - 0.0
26/04:00am 21.3 21.1 8.9 45 6.6 CALM 0 0 0 0 1014.6 - 0.0
26/03:30am 20.9 19.8 9.8 49 6.0 W 6 7 3 4 1014.6 - 0.0
26/03:05am 20.9 19.3 8.9 46 6.4 W 7 9 4 5 1014.7 - 0.0
26/03:00am 20.7 18.9 9.3 48 6.1 WNW 9 9 5 5 1014.7 1013.8 0.0
26/02:30am 21.4 21.2 9.1 45 6.6 CALM 0 0 0 0 1014.7 - 0.0
26/02:00am 21.4 20.6 9.6 47 6.4 WNW 4 7 2 4 1014.8 - 0.0
26/01:43am 21.3 19.9 9.4 46 6.4 WNW 7 9 4 5 1014.8 - 0.0
26/01:30am 21.1 19.9 10.3 50 5.9 WNW 7 9 4 5 1015.0 - 0.0
26/01:28am 21.2 20.2 10.2 49 6.0 WNW 6 9 3 5 1015.0 - 0.0
26/01:00am 21.4 21.3 10.9 51 5.8 NW 2 6 1 3 1015.0 - 0.0
26/12:30am 21.8 20.6 10.3 48 6.3 E 7 9 4 5 1015.2 - 0.0
26/12:00am 22.1 20.6 10.7 48 6.3 E 9 11 5 6 1015.2 1014.3 0.0
 
Date/Time
WST
Temp
°C
App
Temp
°C
Dew
Point
°C
Rel
Hum
%
Delta-T
°C
Wind Press
QNH
hPa
Press
MSL
hPa
Rain since
9am
mm
Dir  Spd
km/h
Gust
km/h
Spd
kts
Gust
kts
25/10:30pm 24.3 22.7 11.4 44 7.3 E 11 13 6 7 1015.5 - 0.0
25/10:00pm 24.2 23.0 12.8 49 6.6 E 11 13 6 7 1015.7 - -
25/09:30pm 24.5 23.8 13.2 49 6.6 E 9 11 5 6 1015.6 - 0.0
25/09:00pm 24.6 24.2 14.0 51 6.3 E 9 9 5 5 1015.6 - 0.0
25/08:30pm 25.9 25.4 13.8 47 7.2 SE 9 11 5 6 1015.6 - 0.0
25/08:00pm 26.3 26.8 14.9 49 6.9 SE 6 7 3 4 1015.6 - 0.0
25/07:30pm 26.5 26.7 14.1 46 7.4 SE 6 9 3 5 1015.3 - 0.0
25/07:00pm 26.9 27.0 13.8 44 7.8 SE 6 7 3 4 1015.1 - 0.0
25/06:00pm 27.6 27.5 13.9 43 8.2 ENE 7 9 4 5 1014.3 1013.4 0.0
25/05:30pm 28.4 28.2 13.7 40 8.8 ENE 7 9 4 5 1013.9 - 0.0
25/05:00pm 29.4 29.3 14.0 39 9.3 ENE 7 9 4 5 1013.6 - 0.0
25/04:30pm 31.0 29.2 12.0 31 11.2 E 13 15 7 8 1013.3 - 0.0
25/04:00pm 31.8 29.4 11.3 28 12.0 E 15 22 8 12 1013.2 - 0.0
25/03:30pm 32.0 29.2 11.4 28 12.1 E 17 24 9 13 1013.0 - 0.0
25/03:00pm 32.2 28.8 10.7 26 12.5 E 19 28 10 15 1013.0 1012.1 0.0
25/02:30pm 32.5 29.7 11.2 27 12.5 E 17 28 9 15 1013.1 - 0.0
25/02:00pm 32.5 29.1 11.2 27 12.5 E 20 30 11 16 1013.3 - 0.0
25/01:30pm 32.9 29.8 11.6 27 12.6 E 19 33 10 18 1013.4 - 0.0
25/01:00pm 33.0 29.8 12.0 27 12.5 ENE 20 33 11 18 1013.8 - 0.0
25/12:30pm 32.2 28.2 11.7 28 12.1 E 24 39 13 21 1014.3 - 0.0
25/12:00pm 32.6 30.3 13.0 30 11.8 E 17 24 9 13 1014.8 1013.9 0.0
25/11:30am 31.5 29.2 13.0 32 11.1 ENE 17 28 9 15 1015.4 - 0.0
25/11:00am 30.9 28.1 12.6 32 10.9 E 19 26 10 14 1015.8 - 0.0
25/10:30am 30.4 28.1 11.8 31 10.9 ENE 15 22 8 12 1016.2 - 0.0
25/10:00am 30.5 28.9 11.7 31 11.0 ENE 11 20 6 11 1016.6 - 0.0
25/09:30am 29.0 27.5 10.4 31 10.6 E 9 17 5 9 1017.2 - 0.0
25/09:00am 28.2 26.8 9.4 30 10.5 NNE 7 17 4 9 1017.4 1016.6 0.0
25/08:30am 27.4 25.5 8.9 31 10.2 ESE 9 13 5 7 1017.3 - 0.0
25/08:00am 26.9 24.9 8.6 31 10.0 E 9 15 5 8 1016.8 - 0.0
25/07:30am 25.7 24.1 8.1 32 9.5 SE 6 7 3 4 1016.6 - 0.0
25/07:00am 25.0 23.3 7.5 32 9.3 SE 6 7 3 4 1016.4 - 0.0
25/06:30am 22.3 21.7 7.3 38 7.8 CALM 0 0 0 0 1016.1 - 0.0
25/06:00am 20.3 19.8 8.0 45 6.4 CALM 0 0 0 0 1015.5 1014.6 0.0
25/05:30am 19.9 19.4 7.7 45 6.3 CALM 0 0 0 0 1015.2 - 0.0
25/05:00am 20.5 18.7 8.1 44 6.5 N 7 9 4 5 1015.0 - 0.0
25/04:30am 20.8 19.3 6.7 40 7.2 WSW 4 7 2 4 1014.7 - 0.0
25/04:00am 22.2 20.0 6.4 36 8.1 NE 7 9 4 5 1014.4 - 0.0
25/03:30am 21.3 19.6 7.4 40 7.2 NW 6 7 3 4 1014.3 - 0.0
25/03:00am 21.4 19.7 7.6 41 7.2 WSW 6 7 3 4 1014.4 1013.5 0.0
25/02:30am 20.7 20.1 7.3 42 6.9 CALM 0 7 0 4 1014.5 - 0.0
25/02:00am 21.7 19.8 6.7 37 7.7 SW 6 7 3 4 1014.6 - 0.0
25/01:30am 22.3 21.2 7.1 37 7.9 NW 2 7 1 4 1014.8 - 0.0
25/01:00am 21.2 19.9 7.8 42 7.0 NW 4 7 2 4 1015.1 - 0.0
25/12:30am 21.3 21.0 8.5 43 6.8 CALM 0 0 0 0 1015.1 - 0.0
25/12:00am 21.7 20.9 8.3 42 7.1 ESE 2 6 1 3 1015.1 1014.2 0.0

Other Formats:

Comma delimited format used in spreadsheet applications
http://www.bom.gov.au/fwo/IDW60801/IDW60801.94217.axf

JavaScript Object Notation format (JSON) in row-major order
http://www.bom.gov.au/fwo/IDW60801/IDW60801.94217.json